Time;durP1;ratioP1;P1;durP2;ratioP2;P2;SDS_P1;SDS_P2;PMS_P1;PMS_P2;Temp;Humidity;BMP_temperature;BMP_pressure;BME280_temperature;BME280_humidity;BME280_pressure;Samples;Min_cycle;Max_cycle;Signal;HPM_P1;HPM_P2
2021/01/30 00:02:44;;;;;;;19.37;4.00;;;7.80;99.90;;;;;;4976398;28;20211;-63
2021/01/30 00:05:39;;;;;;;18.77;4.07;;;7.90;99.90;;;;;;4973431;28;20389;-63
2021/01/30 00:08:19;;;;;;;23.07;4.23;;;7.90;99.90;;;;;;4973297;28;20251;-63
2021/01/30 00:11:20;;;;;;;18.93;4.20;;;7.90;99.90;;;;;;4952770;28;20232;-63
2021/01/30 00:14:01;;;;;;;23.70;4.27;;;7.90;99.90;;;;;;4954272;28;20305;-63
2021/01/30 00:19:48;;;;;;;16.10;4.97;;;8.00;99.90;;;;;;4939569;28;20255;-63
2021/01/30 00:22:21;;;;;;;22.57;6.20;;;8.10;99.90;;;;;;4947153;28;20261;-63
2021/01/30 00:24:52;;;;;;;31.87;6.33;;;8.20;99.90;;;;;;4941448;28;20216;-64
2021/01/30 00:27:39;;;;;;;21.13;5.90;;;8.20;99.90;;;;;;4953513;28;20263;-63
2021/01/30 00:30:32;;;;;;;24.83;6.40;;;8.10;99.90;;;;;;4966684;28;20223;-63
2021/01/30 00:35:56;;;;;;;23.93;5.93;;;8.10;99.90;;;;;;4938522;28;20232;-63
2021/01/30 00:38:40;;;;;;;23.43;5.50;;;8.20;99.90;;;;;;4959411;28;20220;-63
2021/01/30 00:41:39;;;;;;;23.97;5.90;;;8.20;99.90;;;;;;4945451;29;20227;-63
2021/01/30 00:44:15;;;;;;;32.10;7.07;;;8.20;99.90;;;;;;4897820;29;20289;-63
2021/01/30 00:46:48;;;;;;;24.13;6.23;;;8.20;99.90;;;;;;4899508;29;20731;-63
2021/01/30 00:49:22;;;;;;;21.57;6.37;;;8.20;99.90;;;;;;4896577;29;20762;-63
2021/01/30 00:54:55;;;;;;;26.83;6.27;;;8.20;99.90;;;;;;4877705;29;20320;-63
2021/01/30 01:01:56;;;;;;;33.70;7.30;;;8.20;99.90;;;;;;4895638;28;20794;-63
2021/01/30 01:04:56;;;;;;;27.70;6.53;;;8.20;99.90;;;;;;4921666;28;20623;-63
2021/01/30 01:10:36;;;;;;;30.20;6.53;;;8.20;99.90;;;;;;4922360;28;20220;-63
2021/01/30 01:13:19;;;;;;;20.07;6.50;;;8.10;99.90;;;;;;4966511;28;20694;-63
2021/01/30 01:16:28;;;;;;;24.60;5.93;;;8.10;99.90;;;;;;4957984;28;20219;-63
2021/01/30 01:19:07;;;;;;;28.20;6.63;;;8.10;99.90;;;;;;4964921;28;20761;-63
2021/01/30 01:21:42;;;;;;;24.20;6.67;;;8.10;99.90;;;;;;4970595;28;20219;-63
2021/01/30 01:24:33;;;;;;;32.97;6.20;;;8.10;99.90;;;;;;4976729;28;20354;-63
2021/01/30 01:30:16;;;;;;;30.13;6.67;;;8.10;99.90;;;;;;4935054;29;20311;-63
2021/01/30 01:32:44;;;;;;;30.10;5.90;;;8.10;99.90;;;;;;4928525;29;20637;-63
2021/01/30 01:35:21;;;;;;;27.13;6.10;;;8.10;99.90;;;;;;4928227;29;20654;-63
2021/01/30 01:38:23;;;;;;;25.50;6.67;;;8.10;99.90;;;;;;4895330;29;20234;-63
2021/01/30 01:40:53;;;;;;;30.23;6.40;;;8.10;99.90;;;;;;4883680;29;20286;-63
2021/01/30 01:47:21;;;;;;;30.17;6.53;;;8.20;99.90;;;;;;4893883;29;20284;-64
2021/01/30 01:50:39;;;;;;;26.80;6.87;;;8.10;99.90;;;;;;4880289;29;20559;-63
2021/01/30 01:53:13;;;;;;;40.43;8.13;;;8.10;99.90;;;;;;4890528;29;20289;-64
2021/01/30 02:02:10;;;;;;;37.20;6.57;;;8.00;99.90;;;;;;4916833;29;20240;-63
2021/01/30 02:04:39;;;;;;;36.87;5.97;;;8.00;99.90;;;;;;4934495;29;20216;-63
2021/01/30 02:07:27;;;;;;;37.10;7.00;;;8.00;99.90;;;;;;4936390;29;20334;-63
2021/01/30 02:13:53;;;;;;;33.13;6.53;;;8.00;99.90;;;;;;4908273;29;20221;-63
2021/01/30 02:16:58;;;;;;;32.17;7.33;;;7.90;99.90;;;;;;4926239;29;20273;-63
2021/01/30 02:20:14;;;;;;;28.67;6.10;;;7.90;99.90;;;;;;4903802;29;20221;-63
2021/01/30 02:23:22;;;;;;;30.47;6.60;;;7.90;99.90;;;;;;4891330;29;20233;-63
2021/01/30 02:26:49;;;;;;;29.33;6.70;;;7.80;99.90;;;;;;4912861;29;20232;-63
2021/01/30 02:30:07;;;;;;;41.57;6.03;;;7.80;99.90;;;;;;4884810;29;20313;-63
2021/01/30 02:33:10;;;;;;;32.30;6.23;;;7.80;99.90;;;;;;4885724;29;20220;-63
2021/01/30 02:39:27;;;;;;;33.53;6.60;;;7.80;99.90;;;;;;4951555;28;20267;-63
2021/01/30 02:45:32;;;;;;;36.67;6.43;;;7.80;99.90;;;;;;4933913;28;20648;-63
2021/01/30 02:48:20;;;;;;;37.10;6.10;;;7.70;99.90;;;;;;4884982;29;20284;-63
2021/01/30 02:51:00;;;;;;;31.20;6.47;;;7.70;99.90;;;;;;4956391;28;20220;-63
2021/01/30 02:57:24;;;;;;;32.03;5.80;;;7.60;99.90;;;;;;4915922;29;20243;-63
2021/01/30 03:00:05;;;;;;;34.07;5.70;;;7.60;99.90;;;;;;4901811;29;20566;-63
2021/01/30 03:02:42;;;;;;;36.53;5.67;;;7.60;99.90;;;;;;4916149;29;20237;-63
2021/01/30 03:05:12;;;;;;;33.77;6.30;;;7.60;99.90;;;;;;4901500;29;20751;-63
2021/01/30 03:08:30;;;;;;;34.53;6.07;;;7.60;99.90;;;;;;4914210;29;20252;-63
2021/01/30 03:11:48;;;;;;;34.93;5.73;;;7.60;99.90;;;;;;4879003;29;20698;-63
2021/01/30 03:14:59;;;;;;;40.67;6.07;;;7.60;99.90;;;;;;4804666;29;20728;-63
2021/01/30 03:17:53;;;;;;;22.93;9.90;;;7.60;99.90;;;;;;4805213;29;20257;-63
2021/01/30 03:20:21;;;;;;;22.27;10.23;;;7.40;99.90;;;;;;4811306;29;20241;-63
2021/01/30 03:23:02;;;;;;;21.43;10.93;;;7.20;99.90;;;;;;4809991;29;20693;-63
2021/01/30 03:25:44;;;;;;;26.80;13.30;;;7.10;99.90;;;;;;4813986;29;20297;-63
2021/01/30 03:28:50;;;;;;;26.93;13.60;;;7.00;99.90;;;;;;4832215;29;20656;-63
2021/01/30 03:34:44;;;;;;;41.23;19.10;;;6.90;99.90;;;;;;4819851;29;20822;-63
2021/01/30 03:37:16;;;;;;;36.13;18.87;;;6.80;99.90;;;;;;4823125;29;20277;-63
2021/01/30 03:39:46;;;;;;;29.97;15.63;;;6.70;99.90;;;;;;4822603;29;20663;-63
2021/01/30 03:42:18;;;;;;;24.23;14.80;;;6.50;99.90;;;;;;4849672;29;20343;-63
2021/01/30 03:48:08;;;;;;;24.00;14.33;;;6.30;99.90;;;;;;4938874;29;20735;-63
2021/01/30 03:51:08;;;;;;;26.10;15.43;;;6.30;99.90;;;;;;4927055;28;20251;-63
2021/01/30 03:56:21;;;;;;;22.60;14.47;;;6.30;99.90;;;;;;4947070;28;20719;-63
2021/01/30 03:59:08;;;;;;;21.80;14.27;;;6.20;99.90;;;;;;4960472;28;20258;-63
2021/01/30 04:01:37;;;;;;;25.50;15.10;;;6.20;99.90;;;;;;4953904;28;20220;-63
2021/01/30 04:04:07;;;;;;;26.63;14.77;;;6.10;99.90;;;;;;4953660;28;20216;-63
2021/01/30 04:06:34;;;;;;;25.33;14.83;;;6.10;99.90;;;;;;4953717;28;20255;-63
2021/01/30 04:09:04;;;;;;;23.50;14.37;;;6.10;99.90;;;;;;4953290;28;20643;-63
2021/01/30 04:11:56;;;;;;;26.97;15.30;;;6.10;99.90;;;;;;4900833;29;20267;-63
2021/01/30 04:15:01;;;;;;;24.73;14.50;;;6.00;99.90;;;;;;4934807;29;20305;-63
2021/01/30 04:17:55;;;;;;;21.07;13.73;;;6.00;99.90;;;;;;4896218;29;20237;-63
2021/01/30 04:23:43;;;;;;;25.10;15.07;;;5.80;99.90;;;;;;4919766;29;20695;-63
2021/01/30 04:26:11;;;;;;;30.70;15.87;;;5.40;99.90;;;;;;4933111;29;20224;-63
2021/01/30 04:28:53;;;;;;;26.50;14.63;;;5.10;99.90;;;;;;4942950;29;20280;-63
2021/01/30 04:31:38;;;;;;;27.93;16.40;;;5.00;99.90;;;;;;4933550;29;20691;-63
2021/01/30 04:34:33;;;;;;;31.83;16.43;;;4.80;99.90;;;;;;4933871;29;20299;-62
2021/01/30 04:37:20;;;;;;;30.23;17.87;;;4.70;99.90;;;;;;4982822;28;20214;-62
2021/01/30 04:39:53;;;;;;;31.13;17.77;;;4.60;99.90;;;;;;4976025;28;20625;-63
2021/01/30 04:42:58;;;;;;;37.63;18.23;;;4.40;99.90;;;;;;4990776;28;20308;-62
2021/01/30 04:45:39;;;;;;;37.17;17.87;;;4.30;99.90;;;;;;4969447;28;20256;-62
2021/01/30 04:48:56;;;;;;;36.17;18.93;;;4.20;99.90;;;;;;4971580;28;20257;-62
2021/01/30 04:51:42;;;;;;;39.10;18.30;;;4.00;99.90;;;;;;4970243;28;20227;-62
2021/01/30 04:54:57;;;;;;;37.60;18.23;;;4.00;99.90;;;;;;4954681;28;20219;-63
2021/01/30 04:58:10;;;;;;;30.50;16.57;;;3.90;99.90;;;;;;4955850;28;20230;-63
2021/01/30 05:01:14;;;;;;;40.07;16.43;;;3.90;99.90;;;;;;4963331;28;20239;-62
2021/01/30 05:04:38;;;;;;;30.97;14.87;;;3.80;99.90;;;;;;4951930;28;20626;-62
2021/01/30 05:07:52;;;;;;;25.00;13.73;;;3.70;99.90;;;;;;4977875;28;20222;-62
2021/01/30 05:10:31;;;;;;;22.97;13.03;;;3.50;99.90;;;;;;4991621;28;20215;-62
2021/01/30 05:13:43;;;;;;;22.33;12.73;;;3.40;99.90;;;;;;4972012;28;20202;-62
2021/01/30 05:16:39;;;;;;;25.10;13.47;;;3.30;99.90;;;;;;4979067;28;20229;-62
2021/01/30 05:29:38;;;;;;;30.30;14.83;;;3.10;99.90;;;;;;5102600;28;20628;-62
2021/01/30 05:32:41;;;;;;;27.07;14.53;;;3.10;99.90;;;;;;5108721;28;20217;-62
2021/01/30 05:35:36;;;;;;;31.30;14.50;;;3.10;99.90;;;;;;5065972;28;20228;-62
2021/01/30 05:38:10;;;;;;;28.40;15.13;;;3.10;99.90;;;;;;5031589;28;20227;-62
2021/01/30 05:41:39;;;;;;;30.63;16.27;;;3.10;99.90;;;;;;4963455;28;20227;-62
2021/01/30 05:44:24;;;;;;;32.03;15.87;;;3.10;99.90;;;;;;4945143;28;20293;-62
2021/01/30 05:47:39;;;;;;;30.13;16.20;;;3.10;99.90;;;;;;4955980;28;20242;-62
2021/01/30 06:00:20;;;;;;;30.93;16.60;;;2.90;99.90;;;;;;5002336;28;20250;-62
2021/01/30 06:03:09;;;;;;;36.40;17.13;;;2.90;99.90;;;;;;4996868;28;20218;-62
2021/01/30 06:06:13;;;;;;;36.80;17.30;;;2.90;99.90;;;;;;5003567;28;20257;-61
2021/01/30 06:09:06;;;;;;;27.20;16.07;;;2.90;99.90;;;;;;5000074;28;20230;-62
2021/01/30 06:14:39;;;;;;;32.47;16.63;;;2.90;99.90;;;;;;5001327;28;20218;-61
2021/01/30 06:23:15;;;;;;;26.20;14.50;;;2.80;99.90;;;;;;4980485;28;20226;-61
2021/01/30 06:26:24;;;;;;;25.27;13.60;;;2.80;99.90;;;;;;4995496;28;20708;-61
2021/01/30 06:29:01;;;;;;;27.70;13.83;;;2.80;99.90;;;;;;5003773;28;20218;-61
2021/01/30 06:32:03;;;;;;;;;;;;;;;;;;;;;
2021/01/30 06:35:32;;;;;;;29.77;14.60;;;2.70;99.90;;;;;;4962171;28;20713;-61
2021/01/30 06:38:35;;;;;;;21.50;13.47;;;2.70;99.90;;;;;;4973954;28;20233;-62
2021/01/30 06:41:04;;;;;;;24.93;13.70;;;2.70;99.90;;;;;;4934403;29;20232;-61
2021/01/30 06:51:04;;;;;;;25.23;12.30;;;2.70;99.90;;;;;;4949937;29;20212;-61
2021/01/30 06:54:49;;;;;;;22.10;13.30;;;2.60;99.90;;;;;;4935747;29;20220;-61
2021/01/30 06:57:40;;;;;;;21.80;12.50;;;2.60;99.90;;;;;;4945409;29;20228;-61
2021/01/30 07:00:41;;;;;;;23.43;12.37;;;2.60;99.90;;;;;;4992604;28;20254;-61
2021/01/30 07:03:39;;;;;;;21.30;12.23;;;2.60;99.90;;;;;;4974321;28;20268;-61
2021/01/30 07:06:48;;;;;;;19.87;11.93;;;2.60;99.90;;;;;;4946661;28;20234;-61
2021/01/30 07:10:00;;;;;;;;;;;;;;;;;;;;;
2021/01/30 07:13:04;;;;;;;17.93;10.50;;;2.60;99.90;;;;;;4942604;28;20241;-61
2021/01/30 07:15:39;;;;;;;16.60;9.97;;;2.60;99.90;;;;;;4971589;28;20230;-61
2021/01/30 07:19:08;;;;;;;15.60;9.93;;;2.50;99.90;;;;;;4979125;28;20214;-62
2021/01/30 07:25:27;;;;;;;13.83;9.47;;;2.50;99.90;;;;;;4926782;28;20223;-60
2021/01/30 07:32:05;;;;;;;14.30;9.50;;;2.40;99.90;;;;;;4988953;28;20301;-61
2021/01/30 07:35:55;;;;;;;17.30;10.37;;;2.40;99.90;;;;;;4979784;28;20214;-61
2021/01/30 07:38:57;;;;;;;20.03;10.97;;;2.40;99.90;;;;;;4982614;28;20271;-61
2021/01/30 07:41:36;;;;;;;21.03;11.50;;;2.40;99.90;;;;;;4997519;28;20777;-61
2021/01/30 07:44:41;;;;;;;16.87;10.83;;;2.40;99.90;;;;;;4996877;28;20226;-61
2021/01/30 07:47:36;;;;;;;19.27;11.20;;;2.40;99.90;;;;;;4939980;29;20221;-61
2021/01/30 07:50:59;;;;;;;21.10;11.40;;;2.40;99.90;;;;;;4997545;28;20236;-61
2021/01/30 07:54:04;;;;;;;19.73;11.80;;;2.40;99.90;;;;;;5029706;28;20229;-62
2021/01/30 07:57:36;;;;;;;21.83;12.37;;;2.40;99.90;;;;;;5009400;28;20217;-61
2021/01/30 08:04:40;;;;;;;19.53;11.63;;;2.30;99.90;;;;;;5018099;28;20707;-61
2021/01/30 08:07:51;;;;;;;17.93;11.23;;;2.30;99.90;;;;;;5028810;28;20217;-61
2021/01/30 08:11:32;;;;;;;16.90;10.13;;;2.30;99.90;;;;;;5000468;28;20555;-61
2021/01/30 08:14:57;;;;;;;16.83;10.23;;;2.30;99.90;;;;;;4978039;28;20581;-61
2021/01/30 08:20:39;;;;;;;15.17;10.23;;;2.20;99.90;;;;;;5001141;28;20217;-61
2021/01/30 08:27:31;;;;;;;17.97;10.90;;;2.20;99.90;;;;;;5023007;28;20240;-61
2021/01/30 08:30:31;;;;;;;18.87;11.17;;;2.20;99.90;;;;;;5014153;28;20718;-61
2021/01/30 08:33:16;;;;;;;;;;;;;;;;;;;;;
2021/01/30 08:36:44;;;;;;;17.83;10.60;;;2.20;99.90;;;;;;5069775;28;20204;-61
2021/01/30 08:39:25;;;;;;;17.27;10.70;;;2.20;99.90;;;;;;5065605;28;20242;-62
2021/01/30 08:42:29;;;;;;;15.33;9.63;;;2.20;99.90;;;;;;5068487;28;20236;-62
2021/01/30 08:45:42;;;;;;;14.90;9.17;;;2.10;99.90;;;;;;5066282;28;20543;-62
2021/01/30 09:01:29;;;;;;;19.47;10.03;;;2.20;99.90;;;;;;4955085;28;20687;-62
2021/01/30 09:04:51;;;;;;;15.73;9.30;;;2.10;99.90;;;;;;5002352;28;20221;-62
2021/01/30 09:15:06;;;;;;;21.20;10.80;;;2.20;99.90;;;;;;5031915;28;20299;-62
2021/01/30 09:17:43;;;;;;;17.03;10.60;;;2.20;99.90;;;;;;5067895;28;20686;-62
2021/01/30 09:21:18;;;;;;;19.40;9.80;;;2.20;99.90;;;;;;5068177;28;20212;-61
2021/01/30 09:24:59;;;;;;;21.03;10.97;;;2.20;99.90;;;;;;4974273;28;20246;-62
2021/01/30 09:28:22;;;;;;;23.90;11.83;;;2.20;99.90;;;;;;4948967;29;20228;-62
2021/01/30 09:34:53;;;;;;;24.57;11.90;;;2.20;99.90;;;;;;4849544;29;20249;-62
2021/01/30 09:37:55;;;;;;;24.73;11.60;;;2.20;99.90;;;;;;4838856;29;20235;-62
2021/01/30 09:43:43;;;;;;;19.93;10.07;;;2.10;99.90;;;;;;4841682;29;20223;-61
2021/01/30 09:46:41;;;;;;;21.77;11.03;;;2.10;99.90;;;;;;4795061;29;20225;-62
2021/01/30 09:56:44;;;;;;;26.57;11.20;;;2.00;99.90;;;;;;4956854;28;20609;-61
2021/01/30 09:59:14;;;;;;;30.80;13.27;;;2.10;99.90;;;;;;4981151;28;20214;-61
2021/01/30 10:02:43;;;;;;;29.70;13.40;;;2.00;99.90;;;;;;5035274;28;20225;-62
2021/01/30 10:06:11;;;;;;;29.30;13.00;;;2.00;99.90;;;;;;5024646;28;20217;-62
2021/01/30 10:51:21;;;;;;;45.20;18.57;;;1.80;99.90;;;;;;5050561;28;20284;-62
2021/01/30 11:12:33;;;;;;;60.57;23.87;;;1.80;99.90;;;;;;4919575;29;20217;-61
2021/01/30 11:20:10;;;;;;;67.20;24.70;;;1.90;99.90;;;;;;4813693;29;20680;-61
2021/01/30 11:27:30;;;;;;;64.57;25.57;;;1.90;99.90;;;;;;4861481;29;20649;-61
2021/01/30 11:30:44;;;;;;;68.60;25.43;;;1.80;99.90;;;;;;4862052;29;20225;-61
2021/01/30 11:34:08;;;;;;;69.90;26.33;;;1.80;99.90;;;;;;4909077;29;20229;-61
2021/01/30 11:48:11;;;;;;;75.47;27.10;;;1.80;99.90;;;;;;5009370;28;20317;-61
2021/01/30 11:51:46;;;;;;;74.37;27.17;;;1.80;99.90;;;;;;5023813;28;20231;-62
2021/01/30 11:55:49;;;;;;;71.87;28.27;;;1.80;99.90;;;;;;5044461;28;20783;-61
2021/01/30 11:59:21;;;;;;;71.47;28.00;;;1.80;99.90;;;;;;5036286;28;20216;-62
2021/01/30 12:51:52;;;;;;;69.53;29.20;;;2.10;99.90;;;;;;4933349;29;20707;-62
2021/01/30 12:55:16;;;;;;;75.40;29.93;;;2.10;99.90;;;;;;4961067;28;20246;-61
2021/01/30 12:58:14;;;;;;;75.63;29.87;;;2.10;99.90;;;;;;4879827;29;20257;-62
2021/01/30 13:06:01;;;;;;;69.90;27.53;;;2.00;99.90;;;;;;4855665;29;20739;-62
2021/01/30 13:35:52;;;;;;;62.70;27.23;;;2.20;99.90;;;;;;6052600;23;20700;-63
2021/01/30 13:43:07;;;;;;;65.17;29.63;;;2.30;99.90;;;;;;6076715;23;20195;-62
2021/01/30 13:45:48;;;;;;;;;;;;;;;;;;;;;
2021/01/30 13:51:52;;;;;;;66.33;28.27;;;2.30;99.90;;;;;;6101997;23;20186;-62
2021/01/30 13:54:34;;;;;;;64.63;28.27;;;2.20;99.90;;;;;;6101258;23;20187;-62
2021/01/30 14:01:31;;;;;;;61.90;27.50;;;2.10;99.90;;;;;;6095871;23;20253;-62
2021/01/30 14:04:21;;;;;;;63.77;27.43;;;2.00;99.90;;;;;;6077152;23;20191;-62
2021/01/30 14:07:50;;;;;;;68.80;29.53;;;2.10;99.90;;;;;;6034916;23;20553;-62
2021/01/30 14:14:44;;;;;;;67.00;28.57;;;2.10;99.90;;;;;;6101159;23;20684;-63
2021/01/30 14:28:40;;;;;;;61.30;27.87;;;2.00;99.90;;;;;;6159118;23;20200;-62
2021/01/30 14:32:00;;;;;;;63.97;28.57;;;2.00;99.90;;;;;;6081363;23;20706;-62
2021/01/30 14:38:47;;;;;;;55.50;25.87;;;1.90;99.90;;;;;;6159594;23;20185;-62
2021/01/30 14:41:51;;;;;;;58.40;27.30;;;2.00;99.90;;;;;;6098213;23;20199;-62
2021/01/30 14:57:00;;;;;;;61.93;28.57;;;1.90;99.90;;;;;;6136195;23;20197;-61
2021/01/30 14:59:52;;;;;;;58.87;28.33;;;1.90;99.90;;;;;;6166627;22;20656;-62
2021/01/30 15:03:12;;;;;;;63.17;27.77;;;1.90;99.90;;;;;;6245571;22;20183;-62
2021/01/30 15:06:12;;;;;;;61.87;28.30;;;1.90;99.90;;;;;;6239789;23;20219;-62
2021/01/30 15:18:08;;;;;;;59.10;27.60;;;1.80;99.90;;;;;;6065961;23;20187;-62
2021/01/30 15:21:23;;;;;;;61.40;29.00;;;1.80;99.90;;;;;;5923865;24;20198;-62
2021/01/30 15:24:10;;;;;;;61.07;29.80;;;1.90;99.90;;;;;;5950230;23;20197;-62
2021/01/30 15:28:02;;;;;;;66.40;31.00;;;1.90;99.90;;;;;;5994783;23;20533;-63
2021/01/30 15:31:22;;;;;;;64.20;28.93;;;1.80;99.90;;;;;;6057745;23;20225;-62
2021/01/30 15:34:54;;;;;;;63.47;29.23;;;1.80;99.90;;;;;;6153041;23;20194;-62
2021/01/30 15:37:31;;;;;;;70.37;29.93;;;1.80;99.90;;;;;;6147753;23;20194;-62
2021/01/30 15:43:17;;;;;;;61.23;28.63;;;1.80;99.90;;;;;;6113670;23;20573;-62
2021/01/30 15:45:44;;;;;;;68.50;30.77;;;1.80;99.90;;;;;;6128765;23;20297;-62
2021/01/30 15:48:50;;;;;;;64.73;29.60;;;1.80;99.90;;;;;;6148051;23;20208;-62
2021/01/30 15:52:05;;;;;;;;;;;;;;;;;;;;;
2021/01/30 15:54:45;;;;;;;56.63;27.63;;;1.70;99.90;;;;;;6152134;23;20194;-61
2021/01/30 15:57:31;;;;;;;60.27;26.77;;;1.70;99.90;;;;;;6152046;23;20197;-61
2021/01/30 16:03:52;;;;;;;54.53;27.03;;;1.70;99.90;;;;;;6061348;23;20631;-62
2021/01/30 16:07:03;;;;;;;50.80;25.93;;;1.60;99.90;;;;;;6123453;23;20194;-61
2021/01/30 16:10:00;;;;;;;54.37;26.73;;;1.60;99.90;;;;;;6097935;23;20221;-62
2021/01/30 16:12:44;;;;;;;56.87;26.53;;;1.60;99.90;;;;;;6121369;23;20198;-62
2021/01/30 16:15:33;;;;;;;56.63;26.73;;;1.60;99.90;;;;;;6117262;23;20241;-62
2021/01/30 16:18:27;;;;;;;56.30;26.27;;;1.60;99.90;;;;;;6161616;23;20192;-62
2021/01/30 16:25:22;;;;;;;59.90;26.40;;;1.60;99.90;;;;;;6208964;23;20208;-62
2021/01/30 17:56:45;;;;;;;64.17;26.93;;;1.30;99.90;;;;;;6095728;23;20195;-62
2021/01/30 18:03:23;;;;;;;54.97;26.17;;;1.40;99.90;;;;;;5921465;23;20200;-62
2021/01/30 18:07:40;;;;;;;48.87;24.33;;;1.30;99.90;;;;;;6009913;23;20572;-62
2021/01/30 18:35:31;;;;;;;48.20;23.10;;;1.30;99.90;;;;;;5777177;24;20202;-62
2021/01/30 19:00:00;;;;;;;32.47;16.80;;;1.30;99.90;;;;;;5695571;25;20255;-62
2021/01/30 19:25:22;;;;;;;27.70;13.27;;;1.30;99.90;;;;;;5962926;24;20791;-62
2021/01/30 20:08:31;;;;;;;26.60;14.00;;;1.30;99.90;;;;;;5764965;24;20208;-62
2021/01/30 20:20:01;;;;;;;25.37;13.87;;;1.30;99.90;;;;;;5730153;24;20543;-62
2021/01/30 21:03:52;;;;;;;24.13;13.57;;;1.30;99.90;;;;;;5908214;24;20282;-62
2021/01/30 21:16:44;;;;;;;21.63;12.13;;;1.30;99.90;;;;;;5764624;24;20681;-62
2021/01/30 21:19:38;;;;;;;22.13;13.00;;;1.30;99.90;;;;;;5762877;24;20235;-62
2021/01/30 21:41:50;;;;;;;21.27;13.83;;;1.30;99.90;;;;;;5751606;24;20234;-62
2021/01/30 21:45:09;;;;;;;22.77;13.50;;;1.20;99.90;;;;;;5811985;24;20541;-62
2021/01/30 21:52:11;;;;;;;19.70;12.13;;;1.30;99.90;;;;;;5837317;24;20225;-62
2021/01/30 22:05:18;;;;;;;17.73;11.87;;;1.30;99.90;;;;;;5895886;24;20207;-62
2021/01/30 22:30:34;;;;;;;19.23;12.30;;;1.30;99.90;;;;;;5780264;24;20278;-62
2021/01/30 22:33:22;;;;;;;18.83;11.90;;;1.20;99.90;;;;;;5752786;24;20210;-62
2021/01/30 22:42:09;;;;;;;16.60;11.07;;;1.30;99.90;;;;;;5841206;24;20208;-62
2021/01/30 23:12:29;;;;;;;17.53;11.13;;;1.20;99.90;;;;;;5764676;24;20203;-62
2021/01/30 23:15:59;;;;;;;16.87;11.37;;;1.20;99.90;;;;;;5791960;24;20759;-62
2021/01/30 23:20:14;;;;;;;18.50;11.07;;;1.30;99.90;;;;;;5792188;24;20207;-62
2021/01/30 23:24:42;;;;;;;14.37;10.47;;;1.30;99.90;;;;;;5836162;24;20239;-62
2021/01/30 23:31:53;;;;;;;17.93;10.50;;;1.20;99.90;;;;;;5869229;24;20188;-62
2021/01/30 23:44:52;;;;;;;18.97;10.73;;;1.20;99.90;;;;;;5981566;24;20227;-62
